createdAt,value
2018-02-05T00:00:03.705Z,1015.18
2018-02-05T00:01:09.196Z,1015.20
2018-02-05T00:02:14.702Z,1015.21
2018-02-05T00:03:20.232Z,1015.18
2018-02-05T00:04:25.723Z,1015.19
2018-02-05T00:05:32.262Z,1015.22
2018-02-05T00:06:36.719Z,1015.21
2018-02-05T00:07:42.248Z,1015.21
2018-02-05T00:08:47.725Z,1015.23
2018-02-05T00:09:53.258Z,1015.23
2018-02-05T00:10:58.744Z,1015.21
2018-02-05T00:12:05.267Z,1015.17
2018-02-05T00:13:09.764Z,1015.18
2018-02-05T00:14:15.252Z,1015.13
2018-02-05T00:15:20.799Z,1015.12
2018-02-05T00:16:26.275Z,1015.08
2018-02-05T00:17:31.784Z,1015.11
2018-02-05T00:18:38.366Z,1015.11
2018-02-05T00:19:42.809Z,1015.15
2018-02-05T00:20:48.301Z,1015.18
2018-02-05T00:21:53.798Z,1015.14
2018-02-05T00:22:59.377Z,1015.14
2018-02-05T00:24:04.814Z,1015.12
2018-02-05T00:25:11.354Z,1015.17
2018-02-05T00:26:15.843Z,1015.22
2018-02-05T00:27:21.326Z,1015.19
2018-02-05T00:28:26.803Z,1015.22
2018-02-05T00:29:32.344Z,1015.26
2018-02-05T00:30:37.825Z,1015.26
2018-02-05T00:31:44.358Z,1015.29
2018-02-05T00:32:48.835Z,1015.28
2018-02-05T00:33:54.348Z,1015.26
2018-02-05T00:34:59.850Z,1015.26
2018-02-05T00:36:05.354Z,1015.31
2018-02-05T00:37:10.876Z,1015.32
2018-02-05T00:38:17.387Z,1015.25
2018-02-05T00:39:21.854Z,1015.30
2018-02-05T00:40:27.382Z,1015.32
2018-02-05T00:41:32.869Z,1015.34
2018-02-05T00:42:38.381Z,1015.37
2018-02-05T00:43:43.977Z,1015.35
2018-02-05T00:44:50.487Z,1015.38
2018-02-05T00:45:55.006Z,1015.35
2018-02-05T00:47:00.390Z,1015.36
2018-02-05T00:48:05.964Z,1015.35
2018-02-05T00:49:11.399Z,1015.41
2018-02-05T00:50:16.910Z,1015.42
2018-02-05T00:51:23.419Z,1015.40
2018-02-05T00:54:00.341Z,1015.39
2018-02-05T00:55:05.822Z,1015.45
2018-02-05T00:57:04.348Z,1015.41
2018-02-05T00:58:09.873Z,1015.41
2018-02-05T01:00:08.341Z,1015.41
2018-02-05T01:01:13.849Z,1015.45
2018-02-05T01:03:12.372Z,1015.45
2018-02-05T01:04:17.853Z,1015.42
2018-02-05T01:06:16.494Z,1015.45
2018-02-05T01:07:21.863Z,1015.48
2018-02-05T01:09:20.413Z,1015.49
2018-02-05T01:10:25.880Z,1015.49
2018-02-05T01:12:24.397Z,1015.49
2018-02-05T01:13:29.893Z,1015.54
2018-02-05T01:15:28.536Z,1015.42
2018-02-05T01:16:34.012Z,1015.51
2018-02-05T01:18:32.562Z,1015.48
2018-02-05T01:19:38.042Z,1015.50
2018-02-05T01:21:36.544Z,1015.44
2018-02-05T01:22:42.052Z,1015.45
2018-02-05T01:24:40.577Z,1015.50
2018-02-05T01:25:46.054Z,1015.48
2018-02-05T01:27:44.582Z,1015.47
2018-02-05T01:28:50.068Z,1015.47
2018-02-05T01:30:48.649Z,1015.48
2018-02-05T01:31:54.083Z,1015.49
2018-02-05T01:33:52.616Z,1015.52
2018-02-05T01:34:58.098Z,1015.52
2018-02-05T01:36:56.617Z,1015.49
2018-02-05T01:38:02.114Z,1015.49
2018-02-05T01:40:00.662Z,1015.51
2018-02-05T01:41:06.127Z,1015.52
2018-02-05T01:43:04.650Z,1015.48
2018-02-05T01:44:10.140Z,1015.49
2018-02-05T01:46:08.681Z,1015.47
2018-02-05T01:47:14.161Z,1015.44
2018-02-05T01:49:12.689Z,1015.47
2018-02-05T01:50:18.171Z,1015.41
2018-02-05T01:52:16.693Z,1015.42
2018-02-05T01:53:22.186Z,1015.36
2018-02-05T01:55:20.720Z,1015.36
2018-02-05T01:56:26.204Z,1015.38
2018-02-05T01:58:24.725Z,1015.36
2018-02-05T01:59:30.218Z,1015.36
2018-02-05T02:01:28.749Z,1015.36
2018-02-05T02:02:34.302Z,1015.33
2018-02-05T02:04:32.750Z,1015.33
2018-02-05T02:05:38.245Z,1015.32
2018-02-05T02:07:36.772Z,1015.29
2018-02-05T02:08:42.263Z,1015.29
2018-02-05T02:10:40.819Z,1015.33
2018-02-05T02:11:46.274Z,1015.30
2018-02-05T02:12:51.781Z,1015.35
2018-02-05T02:13:57.278Z,1015.38
2018-02-05T02:15:02.787Z,1015.37
2018-02-05T02:16:08.363Z,1015.37
2018-02-05T02:17:13.795Z,1015.37
2018-02-05T02:18:19.434Z,1015.34
2018-02-05T02:19:24.795Z,1015.33
2018-02-05T02:20:30.301Z,1015.30
2018-02-05T02:21:35.808Z,1015.28
2018-02-05T02:22:41.305Z,1015.32
2018-02-05T02:23:46.811Z,1015.34
2018-02-05T02:24:52.314Z,1015.38
2018-02-05T02:25:57.868Z,1015.39
2018-02-05T02:27:03.314Z,1015.39
2018-02-05T02:28:08.820Z,1015.37
2018-02-05T02:29:14.328Z,1015.36
2018-02-05T02:30:19.828Z,1015.37
2018-02-05T02:31:25.336Z,1015.40
2018-02-05T02:32:30.834Z,1015.34
2018-02-05T02:33:36.336Z,1015.36
2018-02-05T02:34:41.848Z,1015.38
2018-02-05T02:35:47.338Z,1015.40
2018-02-05T02:36:52.847Z,1015.41
2018-02-05T02:37:58.360Z,1015.43
2018-02-05T02:39:03.848Z,1015.42
2018-02-05T02:40:09.360Z,1015.41
2018-02-05T02:41:14.854Z,1015.42
2018-02-05T02:42:20.358Z,1015.41
2018-02-05T02:43:25.862Z,1015.45
2018-02-05T02:44:31.368Z,1015.49
2018-02-05T02:45:36.871Z,1015.46
2018-02-05T02:46:42.376Z,1015.44
2018-02-05T02:47:47.883Z,1015.48
2018-02-05T02:48:53.387Z,1015.50
2018-02-05T02:49:58.891Z,1015.54
2018-02-05T02:51:04.389Z,1015.52
2018-02-05T02:52:09.900Z,1015.51
2018-02-05T02:53:15.397Z,1015.55
2018-02-05T02:54:20.905Z,1015.57
2018-02-05T02:55:26.402Z,1015.54
2018-02-05T02:56:31.909Z,1015.53
2018-02-05T02:57:37.411Z,1015.56
2018-02-05T02:58:42.922Z,1015.59
2018-02-05T02:59:48.421Z,1015.59
2018-02-05T03:00:53.924Z,1015.62
2018-02-05T03:01:59.433Z,1015.60
2018-02-05T03:03:04.929Z,1015.62
2018-02-05T03:04:10.436Z,1015.61
2018-02-05T03:05:15.938Z,1015.63
2018-02-05T03:06:21.445Z,1015.69
2018-02-05T03:07:26.945Z,1015.64
2018-02-05T03:08:32.450Z,1015.63
2018-02-05T03:09:37.961Z,1015.64
2018-02-05T03:10:43.457Z,1015.67
2018-02-05T03:11:49.046Z,1015.66
2018-02-05T03:12:54.465Z,1015.66
2018-02-05T03:14:00.037Z,1015.65
2018-02-05T03:15:05.603Z,1015.63
2018-02-05T03:16:10.978Z,1015.65
2018-02-05T03:17:16.554Z,1015.62
2018-02-05T03:18:21.989Z,1015.64
2018-02-05T03:19:27.541Z,1015.66
2018-02-05T03:20:32.989Z,1015.68
2018-02-05T03:21:38.497Z,1015.63
2018-02-05T03:22:43.995Z,1015.63
2018-02-05T03:23:49.503Z,1015.62
2018-02-05T03:24:55.010Z,1015.60
2018-02-05T03:26:00.506Z,1015.63
2018-02-05T03:27:06.019Z,1015.62
2018-02-05T03:28:11.517Z,1015.62
2018-02-05T03:29:17.018Z,1015.61
2018-02-05T03:30:22.534Z,1015.65
2018-02-05T03:31:28.028Z,1015.64
2018-02-05T03:32:33.540Z,1015.64
2018-02-05T03:33:39.041Z,1015.64
2018-02-05T03:34:44.541Z,1015.64
2018-02-05T03:35:50.044Z,1015.65
2018-02-05T03:36:55.547Z,1015.65
2018-02-05T03:38:01.049Z,1015.60
2018-02-05T03:39:06.555Z,1015.64
2018-02-05T03:40:12.056Z,1015.68
2018-02-05T03:41:17.561Z,1015.67
2018-02-05T03:42:23.069Z,1015.64
2018-02-05T03:43:28.576Z,1015.68
2018-02-05T03:44:34.070Z,1015.65
2018-02-05T03:45:39.577Z,1015.65
2018-02-05T03:46:45.086Z,1015.63
2018-02-05T03:47:50.587Z,1015.61
2018-02-05T03:48:56.090Z,1015.66
2018-02-05T03:50:01.590Z,1015.66
2018-02-05T03:51:07.100Z,1015.67
2018-02-05T03:52:12.600Z,1015.68
2018-02-05T03:53:18.100Z,1015.72
2018-02-05T03:54:23.606Z,1015.71
2018-02-05T03:55:29.114Z,1015.77
2018-02-05T03:56:34.610Z,1015.77
2018-02-05T03:57:40.112Z,1015.78
2018-02-05T03:58:45.621Z,1015.77
2018-02-05T03:59:51.125Z,1015.79
2018-02-05T04:00:56.634Z,1015.76
2018-02-05T04:02:02.138Z,1015.78
2018-02-05T04:03:07.632Z,1015.77
2018-02-05T04:04:13.138Z,1015.78
2018-02-05T04:05:18.643Z,1015.79
2018-02-05T04:06:24.150Z,1015.81
2018-02-05T04:07:29.654Z,1015.78
2018-02-05T04:08:35.161Z,1015.84
2018-02-05T04:09:40.662Z,1015.86
2018-02-05T04:10:46.195Z,1015.84
2018-02-05T04:11:51.661Z,1015.85
2018-02-05T04:12:57.167Z,1015.88
2018-02-05T04:14:02.669Z,1015.91
2018-02-05T04:15:08.174Z,1015.93
2018-02-05T04:16:13.676Z,1015.91
2018-02-05T04:17:19.183Z,1015.92
2018-02-05T04:18:24.695Z,1015.91
2018-02-05T04:19:30.183Z,1015.93
2018-02-05T04:20:35.686Z,1015.94
2018-02-05T04:21:41.224Z,1015.95
2018-02-05T04:22:46.695Z,1015.95
2018-02-05T04:23:52.200Z,1015.99
2018-02-05T04:24:57.704Z,1015.97
2018-02-05T04:26:03.209Z,1016.01
2018-02-05T04:27:08.712Z,1016.03
2018-02-05T04:28:14.212Z,1016.01
2018-02-05T04:29:19.716Z,1016.08
2018-02-05T04:30:25.225Z,1016.02
2018-02-05T04:31:30.722Z,1016.00
2018-02-05T04:32:36.231Z,1016.03
2018-02-05T04:33:41.726Z,1016.02
2018-02-05T04:34:47.232Z,1016.10
2018-02-05T04:35:52.738Z,1016.10
2018-02-05T04:36:58.244Z,1016.07
2018-02-05T04:38:03.741Z,1016.10
2018-02-05T04:39:09.252Z,1016.12
2018-02-05T04:40:14.748Z,1016.16
2018-02-05T04:41:20.260Z,1016.14
2018-02-05T04:42:25.754Z,1016.15
2018-02-05T04:43:31.264Z,1016.18
2018-02-05T04:44:36.763Z,1016.20
2018-02-05T04:45:42.266Z,1016.20
2018-02-05T04:46:47.830Z,1016.19
2018-02-05T04:47:53.272Z,1016.17
2018-02-05T04:48:58.779Z,1016.20
2018-02-05T04:50:04.284Z,1016.20
2018-02-05T04:51:09.781Z,1016.19
2018-02-05T04:52:15.290Z,1016.24
2018-02-05T04:53:20.788Z,1016.23
2018-02-05T04:54:26.292Z,1016.19
2018-02-05T04:55:31.799Z,1016.19
2018-02-05T04:56:37.303Z,1016.20
2018-02-05T04:57:42.819Z,1016.19
2018-02-05T04:58:48.304Z,1016.20
2018-02-05T04:59:53.813Z,1016.23
2018-02-05T05:00:59.316Z,1016.23
2018-02-05T05:02:04.814Z,1016.24
2018-02-05T05:03:10.322Z,1016.30
2018-02-05T05:04:15.820Z,1016.27
2018-02-05T05:05:21.330Z,1016.28
2018-02-05T05:06:26.935Z,1016.26
2018-02-05T05:07:32.453Z,1016.31
2018-02-05T05:08:37.835Z,1016.30
2018-02-05T05:09:43.366Z,1016.25
2018-02-05T05:10:48.842Z,1016.21
2018-02-05T05:11:54.457Z,1016.26
2018-02-05T05:12:59.851Z,1016.24
2018-02-05T05:14:05.355Z,1016.24
2018-02-05T05:15:10.857Z,1016.28
2018-02-05T05:16:16.363Z,1016.29
2018-02-05T05:17:21.870Z,1016.27
2018-02-05T05:18:27.372Z,1016.26
2018-02-05T05:19:32.874Z,1016.28
2018-02-05T05:20:38.378Z,1016.32
2018-02-05T05:21:43.876Z,1016.36
2018-02-05T05:22:49.383Z,1016.36
2018-02-05T05:23:54.882Z,1016.36
2018-02-05T05:25:00.395Z,1016.38
2018-02-05T05:26:05.894Z,1016.34
2018-02-05T05:27:11.393Z,1016.36
2018-02-05T05:28:16.903Z,1016.39
2018-02-05T05:29:22.408Z,1016.42
2018-02-05T05:30:27.904Z,1016.36
2018-02-05T05:31:33.418Z,1016.39
2018-02-05T05:32:38.915Z,1016.41
2018-02-05T05:33:44.414Z,1016.39
2018-02-05T05:34:49.967Z,1016.41
2018-02-05T05:35:55.436Z,1016.42
2018-02-05T05:37:00.930Z,1016.34
2018-02-05T05:38:06.432Z,1016.39
2018-02-05T05:39:11.934Z,1016.42
2018-02-05T05:40:17.438Z,1016.43
2018-02-05T05:41:22.940Z,1016.41
2018-02-05T05:42:28.442Z,1016.43
2018-02-05T05:43:33.949Z,1016.43
2018-02-05T05:44:39.449Z,1016.45
2018-02-05T05:45:44.953Z,1016.41
2018-02-05T05:46:50.458Z,1016.39
2018-02-05T05:47:55.955Z,1016.41
2018-02-05T05:49:01.468Z,1016.37
2018-02-05T05:50:06.963Z,1016.40
2018-02-05T05:51:12.468Z,1016.35
2018-02-05T05:52:17.966Z,1016.37
2018-02-05T05:53:23.475Z,1016.41
2018-02-05T05:54:28.977Z,1016.34
2018-02-05T05:55:34.485Z,1016.31
2018-02-05T05:56:39.986Z,1016.40
2018-02-05T05:57:45.490Z,1016.35
2018-02-05T05:58:50.992Z,1016.35
2018-02-05T05:59:56.498Z,1016.36
2018-02-05T06:01:01.999Z,1016.39
2018-02-05T06:02:07.500Z,1016.36
2018-02-05T06:03:13.003Z,1016.39
2018-02-05T06:04:18.515Z,1016.42
2018-02-05T06:05:24.177Z,1016.42
2018-02-05T06:06:29.521Z,1016.42
2018-02-05T06:07:35.019Z,1016.42
2018-02-05T06:08:40.526Z,1016.48
2018-02-05T06:09:46.021Z,1016.45
2018-02-05T06:10:51.534Z,1016.45
2018-02-05T06:11:57.038Z,1016.44
2018-02-05T06:13:02.548Z,1016.49
2018-02-05T06:14:08.036Z,1016.46
2018-02-05T06:15:13.544Z,1016.46
2018-02-05T06:16:19.083Z,1016.46
2018-02-05T06:17:24.548Z,1016.48
2018-02-05T06:18:30.054Z,1016.45
2018-02-05T06:19:35.556Z,1016.45
2018-02-05T06:20:41.054Z,1016.43
2018-02-05T06:21:46.563Z,1016.46
2018-02-05T06:22:52.065Z,1016.48
2018-02-05T06:23:57.575Z,1016.52
2018-02-05T06:25:03.073Z,1016.49
2018-02-05T06:26:08.578Z,1016.53
2018-02-05T06:27:14.078Z,1016.51
2018-02-05T06:28:19.585Z,1016.52
2018-02-05T06:29:25.088Z,1016.52
2018-02-05T06:30:30.585Z,1016.59
2018-02-05T06:31:36.094Z,1016.54
2018-02-05T06:32:41.596Z,1016.61
2018-02-05T06:33:47.095Z,1016.58
2018-02-05T06:34:52.600Z,1016.57
2018-02-05T06:35:58.106Z,1016.58
2018-02-05T06:37:03.615Z,1016.57
2018-02-05T06:38:09.109Z,1016.62
2018-02-05T06:39:14.625Z,1016.57
2018-02-05T06:40:20.119Z,1016.57
2018-02-05T06:41:25.633Z,1016.55
2018-02-05T06:42:31.122Z,1016.56
2018-02-05T06:43:36.627Z,1016.49
2018-02-05T06:44:42.131Z,1016.61
2018-02-05T06:45:47.635Z,1016.58
2018-02-05T06:46:53.136Z,1016.56
2018-02-05T06:47:58.639Z,1016.59
2018-02-05T06:49:04.158Z,1016.60
2018-02-05T06:50:09.647Z,1016.60
2018-02-05T06:51:15.151Z,1016.63
2018-02-05T06:52:20.651Z,1016.63
2018-02-05T06:53:26.157Z,1016.64
2018-02-05T06:54:31.662Z,1016.69
2018-02-05T06:55:37.166Z,1016.66
2018-02-05T06:56:42.665Z,1016.65
2018-02-05T06:57:48.168Z,1016.63
2018-02-05T06:58:53.678Z,1016.64
2018-02-05T06:59:59.173Z,1016.71
2018-02-05T07:01:04.680Z,1016.68
2018-02-05T07:02:10.182Z,1016.68
2018-02-05T07:03:15.697Z,1016.71
2018-02-05T07:04:21.197Z,1016.70
2018-02-05T07:05:26.699Z,1016.73
2018-02-05T07:06:32.231Z,1016.74
2018-02-05T07:07:37.768Z,1016.71
2018-02-05T07:08:43.210Z,1016.75
2018-02-05T07:09:48.705Z,1016.77
2018-02-05T07:10:54.210Z,1016.78
2018-02-05T07:11:59.713Z,1016.78
2018-02-05T07:13:05.220Z,1016.81
2018-02-05T07:14:10.719Z,1016.79
2018-02-05T07:15:16.244Z,1016.79
2018-02-05T07:16:21.728Z,1016.77
2018-02-05T07:17:27.226Z,1016.78
2018-02-05T07:18:32.734Z,1016.80
2018-02-05T07:19:38.237Z,1016.79
2018-02-05T07:20:43.737Z,1016.82
2018-02-05T07:21:49.241Z,1016.80
2018-02-05T07:22:54.748Z,1016.77
2018-02-05T07:24:00.248Z,1016.82
2018-02-05T07:25:05.756Z,1016.78
2018-02-05T07:26:11.253Z,1016.84
2018-02-05T07:27:16.758Z,1016.85
2018-02-05T07:28:22.266Z,1016.83
2018-02-05T07:29:27.784Z,1016.87
2018-02-05T07:30:33.269Z,1016.86
2018-02-05T07:31:38.777Z,1016.88
2018-02-05T07:32:44.279Z,1016.86
2018-02-05T07:33:49.779Z,1016.86
2018-02-05T07:34:55.288Z,1016.89
2018-02-05T07:36:00.787Z,1016.93
2018-02-05T07:37:06.289Z,1016.89
2018-02-05T07:38:11.798Z,1016.89
2018-02-05T07:39:17.301Z,1016.91
2018-02-05T07:40:22.798Z,1016.91
2018-02-05T07:41:28.301Z,1016.92
2018-02-05T07:42:33.807Z,1016.89
2018-02-05T07:43:39.307Z,1016.92
2018-02-05T07:44:44.810Z,1016.90
2018-02-05T07:45:50.316Z,1016.90
2018-02-05T07:46:55.826Z,1016.95
2018-02-05T07:48:01.329Z,1016.93
2018-02-05T07:49:06.826Z,1016.94
2018-02-05T07:50:12.330Z,1016.92
2018-02-05T07:51:17.835Z,1016.94
2018-02-05T07:52:23.340Z,1016.93
2018-02-05T07:53:28.844Z,1016.89
2018-02-05T07:54:34.353Z,1016.90
2018-02-05T07:55:39.858Z,1016.94
2018-02-05T07:56:45.363Z,1016.99
2018-02-05T07:57:50.862Z,1016.99
2018-02-05T07:58:56.377Z,1017.03
2018-02-05T08:00:01.870Z,1016.96
2018-02-05T08:01:07.369Z,1017.00
2018-02-05T08:02:12.867Z,1017.01
2018-02-05T08:03:18.471Z,1017.02
2018-02-05T08:04:23.875Z,1016.96
2018-02-05T08:05:29.388Z,1017.04
2018-02-05T08:06:34.894Z,1017.07
2018-02-05T08:07:40.386Z,1017.01
2018-02-05T08:08:45.894Z,1017.03
2018-02-05T08:09:51.399Z,1017.05
2018-02-05T08:10:56.896Z,1017.10
2018-02-05T08:12:02.407Z,1017.10
2018-02-05T08:13:07.913Z,1017.03
2018-02-05T08:14:13.409Z,1017.10
2018-02-05T08:15:18.914Z,1017.08
2018-02-05T08:16:24.421Z,1017.10
2018-02-05T08:17:29.918Z,1017.12
2018-02-05T08:18:35.427Z,1017.03
2018-02-05T08:19:40.928Z,1017.05
2018-02-05T08:20:46.434Z,1017.06
2018-02-05T08:21:51.943Z,1016.99
2018-02-05T08:22:57.437Z,1017.06
2018-02-05T08:24:02.943Z,1017.01
2018-02-05T08:25:08.445Z,1017.01
2018-02-05T08:26:13.948Z,1016.97
2018-02-05T08:27:19.453Z,1017.02
2018-02-05T08:28:24.955Z,1016.98
2018-02-05T08:29:30.470Z,1017.03
2018-02-05T08:30:35.965Z,1017.04
2018-02-05T08:31:41.474Z,1016.99
2018-02-05T08:32:46.976Z,1017.01
2018-02-05T08:33:52.473Z,1016.95
2018-02-05T08:34:57.984Z,1016.89
2018-02-05T08:36:03.485Z,1016.99
2018-02-05T08:37:08.994Z,1016.99
2018-02-05T08:38:14.493Z,1016.96
2018-02-05T08:39:20.003Z,1016.97
2018-02-05T08:40:25.498Z,1016.97
2018-02-05T08:41:31.006Z,1016.97
2018-02-05T08:42:36.507Z,1017.04
2018-02-05T08:43:42.009Z,1017.01
2018-02-05T08:44:47.511Z,1016.98
2018-02-05T08:45:53.025Z,1016.99
2018-02-05T08:46:58.520Z,1016.96
2018-02-05T08:48:04.027Z,1016.94
2018-02-05T08:49:09.661Z,1016.99
2018-02-05T08:50:15.036Z,1017.00
2018-02-05T08:51:20.542Z,1017.03
2018-02-05T08:52:26.040Z,1016.97
2018-02-05T08:53:31.548Z,1016.94
2018-02-05T08:54:37.095Z,1016.96
2018-02-05T08:55:42.590Z,1016.93
2018-02-05T08:56:48.059Z,1016.91
2018-02-05T08:57:53.556Z,1016.95
2018-02-05T08:58:59.061Z,1016.97
2018-02-05T09:00:04.583Z,1016.98
2018-02-05T09:01:10.080Z,1016.96
2018-02-05T09:02:15.584Z,1016.93
2018-02-05T09:03:21.086Z,1016.90
2018-02-05T09:04:26.609Z,1016.93
2018-02-05T09:05:32.088Z,1016.86
2018-02-05T09:06:37.595Z,1016.82
2018-02-05T09:07:43.098Z,1016.83
2018-02-05T09:08:48.601Z,1016.85
2018-02-05T09:09:54.105Z,1016.75
2018-02-05T09:10:59.609Z,1016.80
2018-02-05T09:12:05.126Z,1016.80
2018-02-05T09:13:10.616Z,1016.82
2018-02-05T09:14:16.118Z,1016.78
2018-02-05T09:15:21.625Z,1016.79
2018-02-05T09:16:27.141Z,1016.80
2018-02-05T09:17:32.634Z,1016.77
2018-02-05T09:18:38.140Z,1016.80
2018-02-05T09:19:43.666Z,1016.80
2018-02-05T09:20:49.156Z,1016.79
2018-02-05T09:21:54.650Z,1016.80
2018-02-05T09:23:00.155Z,1016.75
2018-02-05T09:24:05.668Z,1016.83
2018-02-05T09:25:11.171Z,1016.74
2018-02-05T09:26:16.667Z,1016.80
2018-02-05T09:27:22.172Z,1016.74
2018-02-05T09:28:27.677Z,1016.73
2018-02-05T09:29:33.185Z,1016.78
2018-02-05T09:30:38.699Z,1016.79
2018-02-05T09:31:44.207Z,1016.77
2018-02-05T09:32:49.692Z,1016.76
2018-02-05T09:33:55.204Z,1016.80
2018-02-05T09:35:00.718Z,1016.76
2018-02-05T09:36:06.214Z,1016.75
2018-02-05T09:37:11.748Z,1016.76
2018-02-05T09:38:17.298Z,1016.75
2018-02-05T09:39:22.722Z,1016.71
2018-02-05T09:40:28.236Z,1016.77
2018-02-05T09:41:33.740Z,1016.70
2018-02-05T09:42:39.239Z,1016.69
2018-02-05T09:43:44.740Z,1016.66
2018-02-05T09:44:50.251Z,1016.65
2018-02-05T09:45:55.751Z,1016.70
2018-02-05T09:47:01.254Z,1016.71
2018-02-05T09:48:06.771Z,1016.66
2018-02-05T09:49:12.270Z,1016.66
2018-02-05T09:50:17.772Z,1016.68
2018-02-05T09:51:23.274Z,1016.67
2018-02-05T09:52:28.779Z,1016.66
2018-02-05T09:53:34.285Z,1016.67
2018-02-05T09:54:39.805Z,1016.63
2018-02-05T09:55:45.302Z,1016.67
2018-02-05T09:56:50.800Z,1016.66
2018-02-05T09:57:56.310Z,1016.70
2018-02-05T09:59:01.813Z,1016.68
2018-02-05T10:00:07.315Z,1016.63
2018-02-05T10:01:12.838Z,1016.65
2018-02-05T10:02:18.324Z,1016.67
2018-02-05T10:03:23.843Z,1016.63
2018-02-05T10:04:29.332Z,1016.63
2018-02-05T10:05:34.842Z,1016.68
2018-02-05T10:06:40.352Z,1016.62
2018-02-05T10:07:45.848Z,1016.68
2018-02-05T10:08:51.360Z,1016.72
2018-02-05T10:09:56.857Z,1016.70
2018-02-05T10:11:02.364Z,1016.69
2018-02-05T10:12:07.879Z,1016.69
2018-02-05T10:13:13.385Z,1016.69
2018-02-05T10:14:18.884Z,1016.70
2018-02-05T10:15:24.386Z,1016.68
2018-02-05T10:16:29.897Z,1016.70
2018-02-05T10:17:35.396Z,1016.69
2018-02-05T10:18:40.915Z,1016.67
2018-02-05T10:19:46.412Z,1016.66
2018-02-05T10:20:51.913Z,1016.66
2018-02-05T10:21:57.420Z,1016.67
2018-02-05T10:23:02.917Z,1016.67
2018-02-05T10:24:08.427Z,1016.60
2018-02-05T10:25:13.934Z,1016.64
2018-02-05T10:26:19.435Z,1016.63
2018-02-05T10:27:24.939Z,1016.58
2018-02-05T10:28:30.449Z,1016.58
2018-02-05T10:29:35.959Z,1016.57
2018-02-05T10:30:41.472Z,1016.60
2018-02-05T10:31:46.968Z,1016.54
2018-02-05T10:32:52.468Z,1016.54
2018-02-05T10:33:57.972Z,1016.50
2018-02-05T10:35:03.486Z,1016.51
2018-02-05T10:36:08.997Z,1016.48
2018-02-05T10:37:14.492Z,1016.46
2018-02-05T10:38:19.990Z,1016.46
2018-02-05T10:39:25.497Z,1016.43
2018-02-05T10:40:31.002Z,1016.44
2018-02-05T10:41:36.507Z,1016.38
2018-02-05T10:42:42.012Z,1016.42
2018-02-05T10:43:47.523Z,1016.37
2018-02-05T10:44:53.023Z,1016.44
2018-02-05T10:45:58.540Z,1016.35
2018-02-05T10:47:04.041Z,1016.38
2018-02-05T10:48:09.549Z,1016.35
2018-02-05T10:49:15.060Z,1016.42
2018-02-05T10:50:20.549Z,1016.37
2018-02-05T10:51:26.062Z,1016.42
2018-02-05T10:52:31.558Z,1016.38
2018-02-05T10:53:37.063Z,1016.41
2018-02-05T10:54:42.567Z,1016.40
2018-02-05T10:55:48.080Z,1016.33
2018-02-05T10:56:53.578Z,1016.33
2018-02-05T10:57:59.084Z,1016.29
2018-02-05T10:59:04.601Z,1016.28
2018-02-05T11:00:10.109Z,1016.35
2018-02-05T11:01:15.615Z,1016.34
2018-02-05T11:02:21.110Z,1016.29
2018-02-05T11:03:26.628Z,1016.29
2018-02-05T11:04:32.133Z,1016.31
2018-02-05T11:05:37.635Z,1016.28
2018-02-05T11:06:43.144Z,1016.27
2018-02-05T11:07:48.650Z,1016.25
2018-02-05T11:08:54.143Z,1016.22
2018-02-05T11:09:59.650Z,1016.21
2018-02-05T11:11:05.158Z,1016.17
2018-02-05T11:12:10.660Z,1016.11
2018-02-05T11:13:16.167Z,1016.10
2018-02-05T11:14:21.679Z,1016.13
2018-02-05T11:15:27.185Z,1016.06
2018-02-05T11:16:32.856Z,1016.09
2018-02-05T11:17:38.200Z,1016.09
2018-02-05T11:18:43.711Z,1016.04
2018-02-05T11:19:49.204Z,1016.06
2018-02-05T11:20:54.711Z,1016.08
2018-02-05T11:22:00.220Z,1016.10
2018-02-05T11:23:05.724Z,1016.09
2018-02-05T11:24:11.230Z,1016.06
2018-02-05T11:25:16.791Z,1016.06
2018-02-05T11:26:22.246Z,1016.07
2018-02-05T11:27:27.773Z,1016.10
2018-02-05T11:28:33.256Z,1016.01
2018-02-05T11:29:38.769Z,1016.10
2018-02-05T11:30:44.271Z,1016.04
2018-02-05T11:31:49.788Z,1016.04
2018-02-05T11:32:55.293Z,1016.05
2018-02-05T11:34:00.788Z,1016.10
2018-02-05T11:35:06.300Z,1016.07
2018-02-05T11:36:11.810Z,1016.07
2018-02-05T11:37:17.324Z,1016.11
2018-02-05T11:38:22.822Z,1016.11
2018-02-05T11:39:28.324Z,1016.06
2018-02-05T11:40:33.845Z,1016.04
2018-02-05T11:41:39.341Z,1015.96
2018-02-05T11:42:44.852Z,1015.96
2018-02-05T11:43:50.363Z,1015.91
2018-02-05T11:44:55.863Z,1015.92
2018-02-05T11:46:01.375Z,1015.92
2018-02-05T11:47:06.895Z,1015.87
2018-02-05T11:48:12.396Z,1015.93
2018-02-05T11:49:17.903Z,1015.93
2018-02-05T11:50:23.404Z,1015.95
2018-02-05T11:51:28.910Z,1015.94
2018-02-05T11:52:34.427Z,1015.93
2018-02-05T11:53:39.920Z,1015.92
2018-02-05T11:54:45.433Z,1015.88
2018-02-05T11:55:50.931Z,1015.86
2018-02-05T11:56:56.443Z,1015.88
2018-02-05T11:58:01.976Z,1015.86
2018-02-05T11:59:07.461Z,1015.89
2018-02-05T12:00:12.962Z,1015.85
2018-02-05T12:01:18.471Z,1015.86
2018-02-05T12:02:24.070Z,1015.81
2018-02-05T12:03:29.491Z,1015.83
2018-02-05T12:04:34.991Z,1015.82
2018-02-05T12:05:40.552Z,1015.74
2018-02-05T12:06:46.010Z,1015.81
2018-02-05T12:07:51.520Z,1015.79
2018-02-05T12:08:57.018Z,1015.71
2018-02-05T12:10:02.527Z,1015.78
2018-02-05T12:11:08.049Z,1015.70
2018-02-05T12:12:13.539Z,1015.67
2018-02-05T12:13:19.049Z,1015.69
2018-02-05T12:14:24.560Z,1015.61
2018-02-05T12:15:30.061Z,1015.64
2018-02-05T12:16:35.579Z,1015.68
2018-02-05T12:17:41.074Z,1015.65
2018-02-05T12:18:46.585Z,1015.68
2018-02-05T12:19:52.094Z,1015.65
2018-02-05T12:20:57.595Z,1015.63
2018-02-05T12:22:03.112Z,1015.65
2018-02-05T12:23:08.608Z,1015.55
2018-02-05T12:24:14.113Z,1015.61
2018-02-05T12:25:19.625Z,1015.62
2018-02-05T12:26:25.135Z,1015.64
2018-02-05T12:27:30.641Z,1015.61
2018-02-05T12:28:36.142Z,1015.65
2018-02-05T12:29:41.659Z,1015.65
2018-02-05T12:30:47.161Z,1015.72
2018-02-05T12:31:52.670Z,1015.62
2018-02-05T12:32:58.177Z,1015.60
2018-02-05T12:34:03.677Z,1015.62
2018-02-05T12:35:09.190Z,1015.59
2018-02-05T12:36:14.700Z,1015.58
2018-02-05T12:37:20.216Z,1015.58
2018-02-05T12:38:25.712Z,1015.56
2018-02-05T12:39:31.214Z,1015.61
2018-02-05T12:40:36.721Z,1015.59
2018-02-05T12:41:42.232Z,1015.56
2018-02-05T12:42:47.747Z,1015.53
2018-02-05T12:43:53.249Z,1015.54
2018-02-05T12:44:58.758Z,1015.54
2018-02-05T12:46:04.271Z,1015.49
2018-02-05T12:47:09.772Z,1015.60
2018-02-05T12:48:15.306Z,1015.57
2018-02-05T12:49:20.785Z,1015.52
2018-02-05T12:50:26.309Z,1015.45
2018-02-05T12:51:31.809Z,1015.40
2018-02-05T12:52:37.314Z,1015.45
2018-02-05T12:53:42.823Z,1015.46
2018-02-05T12:54:48.330Z,1015.43
2018-02-05T12:55:53.841Z,1015.43
2018-02-05T12:56:59.346Z,1015.44
2018-02-05T12:58:04.859Z,1015.46
2018-02-05T12:59:10.370Z,1015.38
2018-02-05T13:00:15.871Z,1015.45
2018-02-05T13:01:21.388Z,1015.36
2018-02-05T13:02:26.898Z,1015.42
2018-02-05T13:03:32.410Z,1015.40
2018-02-05T13:04:37.920Z,1015.42
2018-02-05T13:05:43.429Z,1015.42
2018-02-05T13:06:48.948Z,1015.48
2018-02-05T13:07:54.465Z,1015.41
2018-02-05T13:08:59.969Z,1015.33
2018-02-05T13:10:05.478Z,1015.46
2018-02-05T13:11:10.989Z,1015.38
2018-02-05T13:12:16.502Z,1015.43
2018-02-05T13:13:22.016Z,1015.32
2018-02-05T13:14:27.549Z,1015.37
2018-02-05T13:15:33.052Z,1015.37
2018-02-05T13:16:38.567Z,1015.37
2018-02-05T13:17:44.070Z,1015.33
2018-02-05T13:18:49.592Z,1015.35
2018-02-05T13:19:55.101Z,1015.38
2018-02-05T13:21:00.626Z,1015.39
2018-02-05T13:22:06.138Z,1015.36
2018-02-05T13:23:11.645Z,1015.35
2018-02-05T13:24:17.167Z,1015.33
2018-02-05T13:25:22.682Z,1015.30
2018-02-05T13:26:28.196Z,1015.39
2018-02-05T13:27:33.719Z,1015.29
2018-02-05T13:28:39.220Z,1015.30
2018-02-05T13:29:44.758Z,1015.27
2018-02-05T13:30:50.253Z,1015.25
2018-02-05T13:31:55.771Z,1015.23
2018-02-05T13:33:01.293Z,1015.21
2018-02-05T13:34:06.813Z,1015.21
2018-02-05T13:35:12.321Z,1015.20